Time;durP1;ratioP1;P1;durP2;ratioP2;P2;SDS_P1;SDS_P2;PMS_P1;PMS_P2;Temp;Humidity;BMP_temperature;BMP_pressure;BME280_temperature;BME280_humidity;BME280_pressure;Samples;Min_cycle;Max_cycle;Signal;HPM_P1;HPM_P2
2023/04/26 00:00:00;;;;;;;;;;;;;;;-141.59;100.00;61776.25;5097564;28;19936;-85
2023/04/26 00:02:27;;;;;;;;;;;;;;;-141.59;100.00;61776.25;5107265;28;19932;-85
2023/04/26 00:04:54;;;;;;;;;;;;;;;-141.59;100.00;61776.25;5109843;28;19930;-85
2023/04/26 00:07:22;;;;;;;;;;;;;;;-141.59;100.00;61776.25;5105911;28;19924;-85
2023/04/26 00:09:49;;;;;;;;;;;;;;;-141.59;100.00;61776.25;5111332;28;19930;-85
2023/04/26 00:12:17;;;;;;;;;;;;;;;-141.59;100.00;61776.25;5107343;28;19924;-85
2023/04/26 00:14:43;;;;;;;;;;;;;;;-141.59;100.00;61776.25;5103533;28;19931;-85
2023/04/26 00:17:10;;;;;;;;;;;;;;;-141.59;100.00;61776.25;5104078;28;19975;-85
2023/04/26 00:19:37;;;;;;;;;;;;;;;-141.59;100.00;61776.25;5108087;28;19927;-85
2023/04/26 00:22:04;;;;;;;;;;;;;;;-141.59;100.00;61776.25;5111686;28;19924;-85
2023/04/26 00:24:31;;;;;;;;;;;;;;;-141.59;100.00;61776.25;5111604;28;19973;-85
2023/04/26 00:26:59;;;;;;;;;;;;;;;-141.59;100.00;61776.25;5111283;28;19924;-85
2023/04/26 00:29:27;;;;;;;;;;;;;;;-141.59;100.00;61776.25;5111478;28;19931;-86
2023/04/26 00:31:54;;;;;;;;;;;;;;;-141.59;100.00;61776.25;5112567;28;19923;-85
2023/04/26 00:34:21;;;;;;;;;;;;;;;-141.59;100.00;61776.25;5111151;28;19930;-85
2023/04/26 00:36:50;;;;;;;;;;;;;;;-141.59;100.00;61776.25;5109489;28;20014;-85
2023/04/26 00:39:16;;;;;;;;;;;;;;;-141.59;100.00;61776.25;5109235;28;19923;-85
2023/04/26 00:41:43;;;;;;;;;;;;;;;-141.59;100.00;61776.25;5112649;28;19929;-85
2023/04/26 00:44:10;;;;;;;;;;;;;;;-141.59;100.00;61776.25;5100485;28;19928;-85
2023/04/26 00:46:38;;;;;;;;;;;;;;;-141.59;100.00;61776.25;5096780;28;19931;-85
2023/04/26 00:49:05;;;;;;;;;;;;;;;-141.59;100.00;61776.25;5103768;28;20011;-86
2023/04/26 00:51:32;;;;;;;;;;;;;;;-141.59;100.00;61776.25;5108058;28;19924;-85
2023/04/26 00:53:59;;;;;;;;;;;;;;;-141.59;100.00;61776.25;5102774;28;19928;-85
2023/04/26 00:56:26;;;;;;;;;;;;;;;-141.59;100.00;61776.25;5103849;28;19987;-85
2023/04/26 00:58:52;;;;;;;;;;;;;;;-141.59;100.00;61776.25;5107652;28;20014;-86
2023/04/26 01:01:20;;;;;;;;;;;;;;;-141.59;100.00;61776.25;5109834;28;19930;-85
2023/04/26 01:03:48;;;;;;;;;;;;;;;-141.59;100.00;61776.25;5127019;27;19981;-85
2023/04/26 01:06:15;;;;;;;;;;;;;;;-141.59;100.00;61776.25;5094302;28;19963;-85
2023/04/26 01:08:42;;;;;;;;;;;;;;;-141.59;100.00;61776.25;5100410;28;19930;-85
2023/04/26 01:11:09;;;;;;;;;;;;;;;-141.59;100.00;61776.25;5109096;28;19931;-85
2023/04/26 01:13:36;;;;;;;;;;;;;;;-141.59;100.00;61776.25;5107189;28;20023;-85
2023/04/26 01:16:03;;;;;;;;;;;;;;;-141.59;100.00;61776.25;5110019;28;20048;-86
2023/04/26 01:18:30;;;;;;;;;;;;;;;-141.59;100.00;61776.25;5107431;28;19931;-85
2023/04/26 01:20:58;;;;;;;;;;;;;;;-141.59;100.00;61776.25;5109385;28;19947;-85
2023/04/26 01:23:29;;;;;;;;;;;;;;;-141.59;100.00;61776.25;5107297;28;19938;-85
2023/04/26 01:25:56;;;;;;;;;;;;;;;-141.59;100.00;61776.25;5104709;28;19924;-85
2023/04/26 01:28:23;;;;;;;;;;;;;;;-141.59;100.00;61776.25;5116177;27;19934;-85
2023/04/26 01:30:50;;;;;;;;;;;;;;;-141.59;100.00;61776.25;5108064;28;20174;-85
2023/04/26 01:33:17;;;;;;;;;;;;;;;-141.59;100.00;61776.25;5115872;27;19931;-85
2023/04/26 01:35:44;;;;;;;;;;;;;;;-141.59;100.00;61776.25;5111473;27;19924;-86
2023/04/26 01:38:13;;;;;;;;;;;;;;;-141.59;100.00;61776.25;5109445;28;19930;-85
2023/04/26 01:40:44;;;;;;;;;;;;;;;-141.59;100.00;61776.25;5105018;28;19928;-85
2023/04/26 01:43:11;;;;;;;;;;;;;;;-141.59;100.00;61776.25;5124162;27;19930;-85
2023/04/26 01:45:38;;;;;;;;;;;;;;;-141.59;100.00;61776.25;5112510;28;19924;-85
2023/04/26 01:48:23;;;;;;;;;;;;;;;-141.59;100.00;61776.25;5101836;28;19934;-85
2023/04/26 01:50:50;;;;;;;;;;;;;;;-141.59;100.00;61776.25;5110775;28;19959;-85
2023/04/26 01:53:17;;;;;;;;;;;;;;;-141.59;100.00;61776.25;5107216;28;19934;-85
2023/04/26 01:55:45;;;;;;;;;;;;;;;-141.59;100.00;61776.25;5109585;28;19967;-85
2023/04/26 01:58:11;;;;;;;;;;;;;;;-141.59;100.00;61776.25;5109402;28;19927;-85
2023/04/26 02:00:38;;;;;;;;;;;;;;;-141.59;100.00;61776.25;5108791;28;19924;-85
2023/04/26 02:03:05;;;;;;;;;;;;;;;-141.59;100.00;61776.25;5108968;28;19924;-85
2023/04/26 02:05:32;;;;;;;;;;;;;;;-141.59;100.00;61776.25;5105394;28;19969;-85
2023/04/26 02:07:58;;;;;;;;;;;;;;;-141.59;100.00;61776.25;5109945;28;19928;-86
2023/04/26 02:10:25;;;;;;;;;;;;;;;-141.59;100.00;61776.25;5114176;28;19924;-85
2023/04/26 02:12:53;;;;;;;;;;;;;;;-141.59;100.00;61776.25;5108488;28;19924;-85
2023/04/26 02:15:20;;;;;;;;;;;;;;;-141.59;100.00;61776.25;5129183;27;19971;-85
2023/04/26 02:17:48;;;;;;;;;;;;;;;-141.59;100.00;61776.25;5102353;28;19928;-85
2023/04/26 02:20:15;;;;;;;;;;;;;;;-141.59;100.00;61776.25;5104578;28;19931;-85
2023/04/26 02:22:42;;;;;;;;;;;;;;;-141.59;100.00;61776.25;5114560;28;19924;-86
2023/04/26 02:25:10;;;;;;;;;;;;;;;-141.59;100.00;61776.25;5102260;28;19924;-85
2023/04/26 02:27:37;;;;;;;;;;;;;;;-141.59;100.00;61776.25;5102120;28;19948;-85
2023/04/26 02:30:06;;;;;;;;;;;;;;;-141.59;100.00;61776.25;5114941;28;19935;-86
2023/04/26 02:32:34;;;;;;;;;;;;;;;-141.59;100.00;61776.25;5114582;28;19934;-85
2023/04/26 02:35:01;;;;;;;;;;;;;;;-141.59;100.00;61776.25;5113714;28;19928;-86
2023/04/26 02:37:28;;;;;;;;;;;;;;;-141.59;100.00;61776.25;5114532;28;19935;-85
2023/04/26 02:39:55;;;;;;;;;;;;;;;-141.59;100.00;61776.25;5108061;28;19924;-85
2023/04/26 02:42:22;;;;;;;;;;;;;;;-141.59;100.00;61776.25;5113697;28;20018;-85
2023/04/26 02:44:49;;;;;;;;;;;;;;;-141.59;100.00;61776.25;5113326;28;20000;-86
2023/04/26 02:47:17;;;;;;;;;;;;;;;-141.59;100.00;61776.25;5110724;28;19924;-85
2023/04/26 02:49:44;;;;;;;;;;;;;;;-141.59;100.00;61776.25;5105948;28;19950;-85
2023/04/26 02:52:11;;;;;;;;;;;;;;;-141.59;100.00;61776.25;5114017;28;19923;-85
2023/04/26 02:54:38;;;;;;;;;;;;;;;-141.59;100.00;61776.25;5113389;28;19986;-85
2023/04/26 02:57:05;;;;;;;;;;;;;;;-141.59;100.00;61776.25;5113526;28;19949;-85
2023/04/26 02:59:31;;;;;;;;;;;;;;;-141.59;100.00;61776.25;5111315;28;19924;-85
2023/04/26 03:01:58;;;;;;;;;;;;;;;-141.59;100.00;61776.25;5107658;28;20022;-86
2023/04/26 03:04:27;;;;;;;;;;;;;;;-141.59;100.00;61776.25;5100909;28;19924;-85
2023/04/26 03:06:54;;;;;;;;;;;;;;;-141.59;100.00;61776.25;5107283;28;20009;-85
2023/04/26 03:09:21;;;;;;;;;;;;;;;-141.59;100.00;61776.25;5112865;28;19927;-85
2023/04/26 03:11:48;;;;;;;;;;;;;;;-141.59;100.00;61776.25;5106238;28;19947;-86
2023/04/26 03:14:15;;;;;;;;;;;;;;;-141.59;100.00;61776.25;5106325;28;19924;-85
2023/04/26 03:16:42;;;;;;;;;;;;;;;-141.59;100.00;61776.25;5111495;28;19935;-85
2023/04/26 03:19:09;;;;;;;;;;;;;;;-141.59;100.00;61776.25;5114611;28;19967;-85
2023/04/26 03:21:39;;;;;;;;;;;;;;;-141.59;100.00;61776.25;5110631;28;19932;-85
2023/04/26 03:24:06;;;;;;;;;;;;;;;-141.59;100.00;61776.25;5106750;28;19938;-85
2023/04/26 03:26:33;;;;;;;;;;;;;;;-141.59;100.00;61776.25;5123533;27;19924;-85
2023/04/26 03:29:00;;;;;;;;;;;;;;;-141.59;100.00;61776.25;5118188;27;19934;-85
2023/04/26 03:31:27;;;;;;;;;;;;;;;-141.59;100.00;61776.25;5103157;28;19954;-85
2023/04/26 03:33:54;;;;;;;;;;;;;;;-141.59;100.00;61776.25;5103873;28;20034;-85
2023/04/26 03:36:21;;;;;;;;;;;;;;;-141.59;100.00;61776.25;5109829;28;19924;-85
2023/04/26 03:38:50;;;;;;;;;;;;;;;-141.59;100.00;61776.25;5113351;28;19923;-85
2023/04/26 03:41:18;;;;;;;;;;;;;;;-141.59;100.00;61776.25;5110322;28;19927;-85
2023/04/26 03:43:46;;;;;;;;;;;;;;;-141.59;100.00;61776.25;5108709;28;19938;-85
2023/04/26 03:46:12;;;;;;;;;;;;;;;-141.59;100.00;61776.25;5112884;28;19924;-85
2023/04/26 03:48:39;;;;;;;;;;;;;;;-141.59;100.00;61776.25;5111336;28;19924;-85
2023/04/26 03:51:06;;;;;;;;;;;;;;;-141.59;100.00;61776.25;5109271;28;20045;-85
2023/04/26 03:53:34;;;;;;;;;;;;;;;-141.59;100.00;61776.25;5103956;28;19924;-85
2023/04/26 03:56:02;;;;;;;;;;;;;;;-141.59;100.00;61776.25;5112106;28;19930;-85
2023/04/26 03:58:30;;;;;;;;;;;;;;;-141.59;100.00;61776.25;5112763;28;19923;-85
2023/04/26 04:00:57;;;;;;;;;;;;;;;-141.59;100.00;61776.25;5109411;28;19923;-84
2023/04/26 04:03:24;;;;;;;;;;;;;;;-141.59;100.00;61776.25;5106500;28;19932;-85
2023/04/26 04:05:52;;;;;;;;;;;;;;;-141.59;100.00;61776.25;5105199;28;19923;-85
2023/04/26 04:08:18;;;;;;;;;;;;;;;-141.59;100.00;61776.25;5104510;28;19982;-84
2023/04/26 04:10:45;;;;;;;;;;;;;;;-141.59;100.00;61776.25;5094970;28;19928;-85
2023/04/26 04:13:13;;;;;;;;;;;;;;;-141.59;100.00;61776.25;5109750;28;19924;-85
2023/04/26 04:15:41;;;;;;;;;;;;;;;-141.59;100.00;61776.25;5106410;28;19995;-85
2023/04/26 04:18:08;;;;;;;;;;;;;;;-141.59;100.00;61776.25;5109655;28;19991;-85
2023/04/26 04:20:35;;;;;;;;;;;;;;;-141.59;100.00;61776.25;5098829;28;19957;-84
2023/04/26 04:23:05;;;;;;;;;;;;;;;-141.59;100.00;61776.25;5095751;28;19924;-85
2023/04/26 04:25:32;;;;;;;;;;;;;;;-141.59;100.00;61776.25;5105194;28;19977;-84
2023/04/26 04:28:02;;;;;;;;;;;;;;;-141.59;100.00;61776.25;5112644;28;20024;-84
2023/04/26 04:30:30;;;;;;;;;;;;;;;-141.59;100.00;61776.25;5105003;28;19931;-84
2023/04/26 04:32:58;;;;;;;;;;;;;;;-141.59;100.00;61776.25;5112248;27;19939;-85
2023/04/26 04:35:27;;;;;;;;;;;;;;;-141.59;100.00;61776.25;5106653;28;19932;-85
2023/04/26 04:37:56;;;;;;;;;;;;;;;-141.59;100.00;61776.25;5108957;28;19978;-85
2023/04/26 04:40:24;;;;;;;;;;;;;;;-141.59;100.00;61776.25;5109905;28;19928;-85
2023/04/26 04:42:52;;;;;;;;;;;;;;;-141.59;100.00;61776.25;5103916;28;19938;-85
2023/04/26 04:45:21;;;;;;;;;;;;;;;-141.59;100.00;61776.25;5105738;28;19928;-85
2023/04/26 04:47:52;;;;;;;;;;;;;;;-141.59;100.00;61776.25;5104705;28;19924;-84
2023/04/26 04:50:20;;;;;;;;;;;;;;;-141.59;100.00;61776.25;5099418;28;19952;-84
2023/04/26 04:52:47;;;;;;;;;;;;;;;-141.59;100.00;61776.25;5106981;28;19932;-86
2023/04/26 04:55:14;;;;;;;;;;;;;;;-141.59;100.00;61776.25;5101245;28;19980;-86
2023/04/26 04:57:42;;;;;;;;;;;;;;;-141.59;100.00;61776.25;5103367;28;19923;-88
2023/04/26 05:00:11;;;;;;;;;;;;;;;-141.59;100.00;61776.25;5104564;28;19931;-89
2023/04/26 05:02:44;;;;;;;;;;;;;;;-141.59;100.00;61776.25;5108601;28;20030;-89
2023/04/26 05:05:13;;;;;;;;;;;;;;;-141.59;100.00;61776.25;5092539;28;20027;-89
2023/04/26 05:07:40;;;;;;;;;;;;;;;-141.59;100.00;61776.25;5122170;27;19954;-91
2023/04/26 05:10:10;;;;;;;;;;;;;;;-141.59;100.00;61776.25;5109696;28;19923;-91
2023/04/26 05:12:36;;;;;;;;;;;;;;;-141.59;100.00;61776.25;5100820;28;20022;-90
2023/04/26 05:15:04;;;;;;;;;;;;;;;-141.59;100.00;61776.25;5107367;28;19963;-91
2023/04/26 05:17:32;;;;;;;;;;;;;;;-141.59;100.00;61776.25;5099155;28;19950;-89
2023/04/26 05:20:06;;;;;;;;;;;;;;;-141.59;100.00;61776.25;5101567;28;19923;-92
2023/04/26 05:22:35;;;;;;;;;;;;;;;-141.59;100.00;61776.25;5107270;28;19927;-92
2023/04/26 05:25:03;;;;;;;;;;;;;;;-141.59;100.00;61776.25;5106645;28;19931;-91
2023/04/26 05:27:30;;;;;;;;;;;;;;;-141.59;100.00;61776.25;5105794;28;19924;-90
2023/04/26 05:30:16;;;;;;;;;;;;;;;-141.59;100.00;61776.25;5098549;28;19955;-91
2023/04/26 05:33:00;;;;;;;;;;;;;;;-141.59;100.00;61776.25;5104317;28;19924;-89
2023/04/26 05:35:44;;;;;;;;;;;;;;;-141.59;100.00;61776.25;5110747;28;20006;-90
2023/04/26 05:38:13;;;;;;;;;;;;;;;-141.59;100.00;61776.25;5109420;28;19924;-90
2023/04/26 05:40:39;;;;;;;;;;;;;;;-141.59;100.00;61776.25;5098869;28;20018;-90
2023/04/26 05:43:07;;;;;;;;;;;;;;;-141.59;100.00;61776.25;5104225;28;19907;-92
2023/04/26 05:45:35;;;;;;;;;;;;;;;-141.59;100.00;61776.25;5105858;28;19931;-91
2023/04/26 05:48:02;;;;;;;;;;;;;;;-141.59;100.00;61776.25;5105542;28;19967;-87
2023/04/26 05:50:29;;;;;;;;;;;;;;;-141.59;100.00;61776.25;5107187;28;20089;-86
2023/04/26 05:52:55;;;;;;;;;;;;;;;-141.59;100.00;61776.25;5110904;28;19963;-91
2023/04/26 05:55:24;;;;;;;;;;;;;;;-141.59;100.00;61776.25;5106726;28;20010;-91
2023/04/26 05:57:50;;;;;;;;;;;;;;;-141.59;100.00;61776.25;5100751;28;19947;-91
2023/04/26 06:00:19;;;;;;;;;;;;;;;-141.59;100.00;61776.25;5106549;28;19924;-90
2023/04/26 06:02:47;;;;;;;;;;;;;;;-141.59;100.00;61776.25;5108608;28;20019;-92
2023/04/26 06:05:17;;;;;;;;;;;;;;;-141.59;100.00;61776.25;5098178;28;20054;-91
2023/04/26 06:07:44;;;;;;;;;;;;;;;-141.59;100.00;61776.25;5109720;28;20015;-89
2023/04/26 06:10:12;;;;;;;;;;;;;;;-141.59;100.00;61776.25;5099288;28;19931;-91
2023/04/26 06:12:41;;;;;;;;;;;;;;;-141.59;100.00;61776.25;5101374;28;19930;-91
2023/04/26 06:15:08;;;;;;;;;;;;;;;-141.59;100.00;61776.25;5106433;28;20024;-91
2023/04/26 06:17:37;;;;;;;;;;;;;;;-141.59;100.00;61776.25;5099630;28;19928;-92
2023/04/26 06:20:05;;;;;;;;;;;;;;;-141.59;100.00;61776.25;5104256;28;19931;-90
2023/04/26 06:22:31;;;;;;;;;;;;;;;-141.59;100.00;61776.25;5101919;28;19938;-92
2023/04/26 06:24:58;;;;;;;;;;;;;;;-141.59;100.00;61776.25;5104076;28;19924;-89
2023/04/26 06:27:26;;;;;;;;;;;;;;;-141.59;100.00;61776.25;5105650;28;19928;-89
2023/04/26 06:29:55;;;;;;;;;;;;;;;-141.59;100.00;61776.25;5120264;28;19924;-91
2023/04/26 06:32:28;;;;;;;;;;;;;;;-141.59;100.00;61776.25;5102107;28;19928;-92
2023/04/26 06:34:55;;;;;;;;;;;;;;;-141.59;100.00;61776.25;5102075;28;20042;-90
2023/04/26 06:37:22;;;;;;;;;;;;;;;-141.59;100.00;61776.25;5106286;28;19963;-89
2023/04/26 06:39:48;;;;;;;;;;;;;;;-141.59;100.00;61776.25;5099898;28;19959;-91
2023/04/26 06:42:15;;;;;;;;;;;;;;;-141.59;100.00;61776.25;5099796;28;19939;-91
2023/04/26 06:45:02;;;;;;;;;;;;;;;-141.59;100.00;61776.25;5098036;28;19930;-90
2023/04/26 06:47:33;;;;;;;;;;;;;;;-141.59;100.00;61776.25;5098150;28;19924;-90
2023/04/26 06:50:00;;;;;;;;;;;;;;;-141.59;100.00;61776.25;5106696;28;19928;-90
2023/04/26 06:52:28;;;;;;;;;;;;;;;-141.59;100.00;61776.25;5105727;28;19930;-91
2023/04/26 06:54:55;;;;;;;;;;;;;;;-141.59;100.00;61776.25;5105504;28;19924;-92
2023/04/26 06:57:22;;;;;;;;;;;;;;;-141.59;100.00;61776.25;5109861;28;19939;-89
2023/04/26 06:59:48;;;;;;;;;;;;;;;-141.59;100.00;61776.25;5114568;28;19946;-91
2023/04/26 07:02:16;;;;;;;;;;;;;;;-141.59;100.00;61776.25;5113573;28;19931;-91
2023/04/26 07:04:43;;;;;;;;;;;;;;;-141.59;100.00;61776.25;5110390;28;20015;-90
2023/04/26 07:07:10;;;;;;;;;;;;;;;-141.59;100.00;61776.25;5102173;28;19930;-90
2023/04/26 07:09:37;;;;;;;;;;;;;;;-141.59;100.00;61776.25;5106607;28;19935;-89
2023/04/26 07:12:04;;;;;;;;;;;;;;;-141.59;100.00;61776.25;5106128;28;19924;-91
2023/04/26 07:14:31;;;;;;;;;;;;;;;-141.59;100.00;61776.25;5109366;28;19931;-90
2023/04/26 07:16:57;;;;;;;;;;;;;;;-141.59;100.00;61776.25;5110180;28;19924;-91
2023/04/26 07:19:25;;;;;;;;;;;;;;;-141.59;100.00;61776.25;5097994;28;19932;-88
2023/04/26 07:21:52;;;;;;;;;;;;;;;-141.59;100.00;61776.25;5110728;28;19924;-89
2023/04/26 07:24:19;;;;;;;;;;;;;;;-141.59;100.00;61776.25;5109105;28;19924;-90
2023/04/26 07:26:45;;;;;;;;;;;;;;;-141.59;100.00;61776.25;5112600;28;19930;-90
2023/04/26 07:29:13;;;;;;;;;;;;;;;-141.59;100.00;61776.25;5113288;28;20014;-90
2023/04/26 07:31:39;;;;;;;;;;;;;;;-141.59;100.00;61776.25;5102020;28;19924;-92
2023/04/26 07:34:06;;;;;;;;;;;;;;;-141.59;100.00;61776.25;5104490;28;19924;-91
2023/04/26 07:36:34;;;;;;;;;;;;;;;-141.59;100.00;61776.25;5102679;28;19930;-91
2023/04/26 07:39:01;;;;;;;;;;;;;;;-141.59;100.00;61776.25;5107584;28;19931;-90
2023/04/26 07:41:28;;;;;;;;;;;;;;;-141.59;100.00;61776.25;5110914;28;19924;-91
2023/04/26 07:43:54;;;;;;;;;;;;;;;-141.59;100.00;61776.25;5107573;28;20006;-90
2023/04/26 07:46:21;;;;;;;;;;;;;;;-141.59;100.00;61776.25;5106216;28;19924;-88
2023/04/26 07:48:48;;;;;;;;;;;;;;;-141.59;100.00;61776.25;5102911;28;19931;-91
2023/04/26 07:51:15;;;;;;;;;;;;;;;-141.59;100.00;61776.25;5109953;28;19924;-91
2023/04/26 07:53:43;;;;;;;;;;;;;;;-141.59;100.00;61776.25;5113734;28;20214;-91
2023/04/26 07:56:10;;;;;;;;;;;;;;;-141.59;100.00;61776.25;5113355;28;20038;-90
2023/04/26 07:58:38;;;;;;;;;;;;;;;-141.59;100.00;61776.25;5103200;28;19975;-90
2023/04/26 08:01:05;;;;;;;;;;;;;;;-141.59;100.00;61776.25;5105419;27;19931;-91
2023/04/26 08:03:32;;;;;;;;;;;;;;;-141.59;100.00;61776.25;5111019;28;19924;-88
2023/04/26 08:05:58;;;;;;;;;;;;;;;-141.59;100.00;61776.25;5109732;28;19928;-91
2023/04/26 08:08:25;;;;;;;;;;;;;;;-141.59;100.00;61776.25;5106639;28;20002;-91
2023/04/26 08:10:54;;;;;;;;;;;;;;;-141.59;100.00;61776.25;5113048;28;19930;-91
2023/04/26 08:13:21;;;;;;;;;;;;;;;-141.59;100.00;61776.25;5116663;27;19927;-90
2023/04/26 08:15:48;;;;;;;;;;;;;;;-141.59;100.00;61776.25;5102570;28;19997;-89
2023/04/26 08:18:14;;;;;;;;;;;;;;;-141.59;100.00;61776.25;5108590;27;19953;-91
2023/04/26 08:20:41;;;;;;;;;;;;;;;-141.59;100.00;61776.25;5120421;27;19974;-90
2023/04/26 08:23:08;;;;;;;;;;;;;;;-141.59;100.00;61776.25;5112612;28;19945;-88
2023/04/26 08:25:35;;;;;;;;;;;;;;;-141.59;100.00;61776.25;5104006;28;19953;-90
2023/04/26 08:28:04;;;;;;;;;;;;;;;-141.59;100.00;61776.25;5109945;28;19954;-88
2023/04/26 08:30:31;;;;;;;;;;;;;;;-141.59;100.00;61776.25;5112543;28;19963;-90
2023/04/26 08:32:58;;;;;;;;;;;;;;;-141.59;100.00;61776.25;5093725;28;19947;-89
2023/04/26 08:35:25;;;;;;;;;;;;;;;-141.59;100.00;61776.25;5113290;28;19954;-90
2023/04/26 08:37:52;;;;;;;;;;;;;;;-141.59;100.00;61776.25;5103233;28;20081;-88
2023/04/26 08:40:22;;;;;;;;;;;;;;;-141.59;100.00;61776.25;5109665;28;19959;-86
2023/04/26 08:42:51;;;;;;;;;;;;;;;-141.59;100.00;61776.25;5110814;28;19946;-86
2023/04/26 08:45:19;;;;;;;;;;;;;;;-141.59;100.00;61776.25;5109932;28;20003;-86
2023/04/26 08:47:48;;;;;;;;;;;;;;;-141.59;100.00;61776.25;5105037;28;19932;-85
2023/04/26 08:50:18;;;;;;;;;;;;;;;-141.59;100.00;61776.25;5107273;28;19928;-86
2023/04/26 08:52:45;;;;;;;;;;;;;;;-141.59;100.00;61776.25;5096913;28;19935;-86
2023/04/26 08:55:13;;;;;;;;;;;;;;;-141.59;100.00;61776.25;5106180;28;19924;-86
2023/04/26 08:57:40;;;;;;;;;;;;;;;-141.59;100.00;61776.25;5107810;28;19930;-86
2023/04/26 09:00:11;;;;;;;;;;;;;;;-141.59;100.00;61776.25;5088549;28;19931;-86
2023/04/26 09:02:40;;;;;;;;;;;;;;;-141.59;100.00;61776.25;5105560;28;19938;-86
2023/04/26 09:05:08;;;;;;;;;;;;;;;-141.59;100.00;61776.25;5106895;27;19988;-85
2023/04/26 09:07:39;;;;;;;;;;;;;;;-141.59;100.00;61776.25;5096772;28;19946;-85
2023/04/26 09:10:07;;;;;;;;;;;;;;;-141.59;100.00;61776.25;5119783;27;19950;-86
2023/04/26 09:12:35;;;;;;;;;;;;;;;-141.59;100.00;61776.25;5108056;28;20173;-86
2023/04/26 09:15:03;;;;;;;;;;;;;;;-141.59;100.00;61776.25;5106984;28;19935;-85
2023/04/26 09:17:30;;;;;;;;;;;;;;;-141.59;100.00;61776.25;5101609;28;19924;-86
2023/04/26 09:19:59;;;;;;;;;;;;;;;-141.59;100.00;61776.25;5107727;28;19932;-86
2023/04/26 09:22:32;;;;;;;;;;;;;;;-141.59;100.00;61776.25;5096351;28;19931;-86
2023/04/26 09:25:00;;;;;;;;;;;;;;;-141.59;100.00;61776.25;5115180;27;19992;-85
2023/04/26 09:27:33;;;;;;;;;;;;;;;-141.59;100.00;61776.25;5100777;28;19932;-86
2023/04/26 09:30:01;;;;;;;;;;;;;;;-141.59;100.00;61776.25;5099177;28;19998;-87
2023/04/26 09:32:43;;;;;;;;;;;;;;;-141.59;100.00;61776.25;5108639;28;19924;-87
2023/04/26 09:35:18;;;;;;;;;;;;;;;-141.59;100.00;61776.25;5108426;27;19928;-86
2023/04/26 09:37:51;;;;;;;;;;;;;;;-141.59;100.00;61776.25;5102721;28;20015;-86
2023/04/26 09:40:18;;;;;;;;;;;;;;;-141.59;100.00;61776.25;5105510;28;20015;-87
2023/04/26 09:42:45;;;;;;;;;;;;;;;-141.59;100.00;61776.25;5097154;28;19924;-86
2023/04/26 09:45:12;;;;;;;;;;;;;;;-141.59;100.00;61776.25;5103166;28;19967;-86
2023/04/26 09:47:39;;;;;;;;;;;;;;;-141.59;100.00;61776.25;5104547;28;19931;-86
2023/04/26 09:50:07;;;;;;;;;;;;;;;-141.59;100.00;61776.25;5106151;28;19952;-86
2023/04/26 09:52:44;;;;;;;;;;;;;;;-141.59;100.00;61776.25;5106266;28;19958;-86
2023/04/26 09:55:11;;;;;;;;;;;;;;;-141.59;100.00;61776.25;5107428;28;20042;-86
2023/04/26 09:57:42;;;;;;;;;;;;;;;-141.59;100.00;61776.25;5105671;28;19939;-86
2023/04/26 10:00:11;;;;;;;;;;;;;;;-141.59;100.00;61776.25;5102596;28;19923;-86
2023/04/26 10:02:38;;;;;;;;;;;;;;;-141.59;100.00;61776.25;5104753;28;19935;-85
2023/04/26 10:05:08;;;;;;;;;;;;;;;-141.59;100.00;61776.25;5104304;28;19924;-85
2023/04/26 10:07:35;;;;;;;;;;;;;;;-141.59;100.00;61776.25;5103975;28;19962;-85
2023/04/26 10:10:04;;;;;;;;;;;;;;;-141.59;100.00;61776.25;5104433;28;19924;-85
2023/04/26 10:12:31;;;;;;;;;;;;;;;-141.59;100.00;61776.25;5098975;28;20109;-85
2023/04/26 10:14:58;;;;;;;;;;;;;;;-141.59;100.00;61776.25;5099648;28;19928;-85
2023/04/26 10:17:26;;;;;;;;;;;;;;;-141.59;100.00;61776.25;5101935;28;19979;-84
2023/04/26 10:19:55;;;;;;;;;;;;;;;-141.59;100.00;61776.25;5102180;28;20031;-85
2023/04/26 10:22:23;;;;;;;;;;;;;;;-141.59;100.00;61776.25;5106828;28;19994;-85
2023/04/26 10:24:50;;;;;;;;;;;;;;;-141.59;100.00;61776.25;5111881;28;19959;-85
2023/04/26 10:27:39;;;;;;;;;;;;;;;-141.59;100.00;61776.25;5097420;28;19941;-84
2023/04/26 10:30:09;;;;;;;;;;;;;;;-141.59;100.00;61776.25;5100774;28;19981;-85
2023/04/26 10:32:55;;;;;;;;;;;;;;;-141.59;100.00;61776.25;5123270;27;20032;-84
2023/04/26 10:35:23;;;;;;;;;;;;;;;-141.59;100.00;61776.25;5119964;27;19953;-85
2023/04/26 10:38:08;;;;;;;;;;;;;;;-141.59;100.00;61776.25;5106582;28;19968;-85
2023/04/26 10:40:37;;;;;;;;;;;;;;;-141.59;100.00;61776.25;5110508;28;20031;-85
2023/04/26 10:43:23;;;;;;;;;;;;;;;-141.59;100.00;61776.25;5103463;28;19951;-85
2023/04/26 10:45:51;;;;;;;;;;;;;;;-141.59;100.00;61776.25;5107795;28;19951;-84
2023/04/26 10:48:18;;;;;;;;;;;;;;;-141.59;100.00;61776.25;5102401;28;19957;-85
2023/04/26 10:51:04;;;;;;;;;;;;;;;-141.59;100.00;61776.25;5105832;28;19965;-85
2023/04/26 10:53:32;;;;;;;;;;;;;;;-141.59;100.00;61776.25;5107231;27;19944;-84
2023/04/26 10:55:59;;;;;;;;;;;;;;;-141.59;100.00;61776.25;5104795;28;19956;-84
2023/04/26 10:58:26;;;;;;;;;;;;;;;-141.59;100.00;61776.25;5105680;28;19948;-83
2023/04/26 11:01:05;;;;;;;;;;;;;;;-141.59;100.00;61776.25;5106741;28;19946;-84
2023/04/26 11:03:32;;;;;;;;;;;;;;;-141.59;100.00;61776.25;5102809;28;19997;-84
2023/04/26 11:05:59;;;;;;;;;;;;;;;-141.59;100.00;61776.25;5103866;28;19948;-84
2023/04/26 11:08:28;;;;;;;;;;;;;;;-141.59;100.00;61776.25;5122065;27;19949;-83
2023/04/26 11:11:13;;;;;;;;;;;;;;;-141.59;100.00;61776.25;5108968;28;19959;-83
2023/04/26 11:13:40;;;;;;;;;;;;;;;-141.59;100.00;61776.25;5106941;28;20016;-83
2023/04/26 11:16:09;;;;;;;;;;;;;;;-141.59;100.00;61776.25;5103357;28;19955;-83
2023/04/26 11:18:37;;;;;;;;;;;;;;;-141.59;100.00;61776.25;5104087;28;19953;-86
2023/04/26 11:21:05;;;;;;;;;;;;;;;-141.59;100.00;61776.25;5100675;28;19991;-86
2023/04/26 11:23:32;;;;;;;;;;;;;;;-141.59;100.00;61776.25;5109326;28;19953;-89
2023/04/26 11:25:59;;;;;;;;;;;;;;;-141.59;100.00;61776.25;5105655;28;19948;-88
2023/04/26 11:28:26;;;;;;;;;;;;;;;-141.59;100.00;61776.25;5099844;28;19975;-88
2023/04/26 11:30:52;;;;;;;;;;;;;;;-141.59;100.00;61776.25;5122915;27;19963;-88
2023/04/26 11:33:22;;;;;;;;;;;;;;;-141.59;100.00;61776.25;5112106;28;19958;-87
2023/04/26 11:35:49;;;;;;;;;;;;;;;-141.59;100.00;61776.25;5108429;28;19942;-86
2023/04/26 11:38:16;;;;;;;;;;;;;;;-141.59;100.00;61776.25;5106872;28;19945;-87
2023/04/26 11:40:53;;;;;;;;;;;;;;;-141.59;100.00;61776.25;5107715;28;20321;-87
2023/04/26 11:43:19;;;;;;;;;;;;;;;-141.59;100.00;61776.25;5110449;28;19961;-87
2023/04/26 11:45:46;;;;;;;;;;;;;;;-141.59;100.00;61776.25;5104568;28;19941;-86
2023/04/26 11:48:13;;;;;;;;;;;;;;;-141.59;100.00;61776.25;5110177;28;19976;-87
2023/04/26 11:50:42;;;;;;;;;;;;;;;-141.59;100.00;61776.25;5101162;27;20005;-86
2023/04/26 11:53:09;;;;;;;;;;;;;;;-141.59;100.00;61776.25;5101357;28;19928;-87
2023/04/26 11:55:36;;;;;;;;;;;;;;;-141.59;100.00;61776.25;5107611;28;19984;-86
2023/04/26 11:58:09;;;;;;;;;;;;;;;-141.59;100.00;61776.25;5111383;28;19968;-86
2023/04/26 12:00:36;;;;;;;;;;;;;;;-141.59;100.00;61776.25;5110982;28;19950;-86
2023/04/26 12:03:05;;;;;;;;;;;;;;;-141.59;100.00;61776.25;5114310;28;19966;-86
2023/04/26 12:05:32;;;;;;;;;;;;;;;-141.59;100.00;61776.25;5102073;28;19947;-86
2023/04/26 12:08:00;;;;;;;;;;;;;;;-141.59;100.00;61776.25;5104703;28;19958;-86
2023/04/26 12:10:28;;;;;;;;;;;;;;;-141.59;100.00;61776.25;5100101;28;19962;-86
2023/04/26 12:12:56;;;;;;;;;;;;;;;-141.59;100.00;61776.25;5099890;28;20010;-86
2023/04/26 12:15:23;;;;;;;;;;;;;;;-141.59;100.00;61776.25;5103964;28;20016;-86
2023/04/26 12:17:54;;;;;;;;;;;;;;;-141.59;100.00;61776.25;5096952;28;19954;-86
2023/04/26 12:20:26;;;;;;;;;;;;;;;-141.59;100.00;61776.25;5125945;27;20042;-86
2023/04/26 12:23:03;;;;;;;;;;;;;;;-141.59;100.00;61776.25;5109154;28;19950;-86